createdAt,value
2019-04-06T00:02:49.971Z,7.77
2019-04-06T00:08:17.377Z,8.63
2019-04-06T00:14:15.842Z,9.03
2019-04-06T00:19:36.348Z,9.30
2019-04-06T00:25:08.976Z,10.83
2019-04-06T00:31:28.003Z,10.00
2019-04-06T00:36:40.899Z,10.90
2019-04-06T00:48:09.620Z,10.17
2019-04-06T00:53:34.300Z,9.87
2019-04-06T00:59:12.829Z,9.30
2019-04-06T01:04:32.594Z,8.83
2019-04-06T01:10:23.760Z,9.20
2019-04-06T01:16:13.825Z,9.97
2019-04-06T01:26:39.399Z,10.20
2019-04-06T01:32:18.428Z,10.90
2019-04-06T01:37:31.027Z,10.77
2019-04-06T01:43:33.553Z,10.23
2019-04-06T01:49:24.245Z,9.27
2019-04-06T01:55:02.231Z,8.70
2019-04-06T02:00:10.349Z,8.90
2019-04-06T02:11:48.093Z,8.80
2019-04-06T02:17:30.609Z,8.70
2019-04-06T02:22:43.850Z,8.67
2019-04-06T02:28:27.289Z,7.67
2019-04-06T02:34:08.982Z,8.83
2019-04-06T02:39:56.797Z,7.90
2019-04-06T02:45:14.308Z,8.43
2019-04-06T02:50:36.596Z,7.40
2019-04-06T02:56:20.559Z,8.80
2019-04-06T03:01:49.635Z,9.03
2019-04-06T03:07:59.815Z,7.90
2019-04-06T03:13:40.243Z,8.30
2019-04-06T03:30:18.705Z,8.30
2019-04-06T03:35:59.067Z,7.97
2019-04-06T03:41:46.490Z,7.63
2019-04-06T03:47:45.178Z,7.63
2019-04-06T03:52:56.239Z,8.43
2019-04-06T04:10:07.578Z,8.60
2019-04-06T04:15:56.332Z,7.70
2019-04-06T04:21:34.438Z,7.63
2019-04-06T04:27:29.352Z,8.40
2019-04-06T04:33:11.535Z,7.10
2019-04-06T04:44:32.600Z,7.87
2019-04-06T04:55:55.923Z,8.27
2019-04-06T05:01:08.982Z,7.87
2019-04-06T05:06:47.777Z,7.93
2019-04-06T05:12:58.795Z,7.73
2019-04-06T05:24:01.921Z,7.40
2019-04-06T05:29:26.049Z,7.87
2019-04-06T05:34:54.127Z,8.43
2019-04-06T05:39:54.292Z,8.70
2019-04-06T05:44:58.011Z,8.17
2019-04-06T05:50:01.814Z,8.20
2019-04-06T05:55:05.757Z,7.70
2019-04-06T06:00:11.313Z,7.60
2019-04-06T06:05:15.490Z,7.00
2019-04-06T06:10:19.305Z,7.13
2019-04-06T06:15:23.425Z,7.07
2019-04-06T06:20:27.166Z,8.50
2019-04-06T06:25:30.923Z,8.03
2019-04-06T06:30:34.669Z,7.47
2019-04-06T06:35:38.521Z,7.47
2019-04-06T06:40:42.380Z,8.03
2019-04-06T06:45:46.075Z,8.17
2019-04-06T06:50:49.855Z,7.33
2019-04-06T06:55:54.016Z,7.30
2019-04-06T07:00:58.351Z,7.67
2019-04-06T07:06:02.061Z,7.13
2019-04-06T07:11:06.153Z,7.83
2019-04-06T07:16:10.031Z,7.30
2019-04-06T07:21:16.473Z,7.73
2019-04-06T07:26:19.837Z,7.70
2019-04-06T07:31:23.554Z,7.43
2019-04-06T07:36:27.856Z,6.87
2019-04-06T07:41:31.951Z,6.53
2019-04-06T07:46:35.643Z,7.20
2019-04-06T07:51:39.369Z,6.87
2019-04-06T07:56:43.274Z,7.17
2019-04-06T08:01:48.704Z,7.47
2019-04-06T08:06:53.973Z,6.67
2019-04-06T08:11:58.256Z,6.30
2019-04-06T08:17:03.032Z,6.03
2019-04-06T08:22:08.503Z,6.40
2019-04-06T08:27:13.290Z,7.03
2019-04-06T08:32:18.031Z,5.87
2019-04-06T08:37:25.706Z,5.70
2019-04-06T08:42:31.908Z,6.33
2019-04-06T08:47:38.732Z,6.25
2019-04-06T08:52:44.320Z,6.22
2019-04-06T08:57:48.638Z,6.10
2019-04-06T09:02:56.036Z,6.03
2019-04-06T09:08:02.218Z,6.17
2019-04-06T09:13:07.870Z,6.17
2019-04-06T09:18:12.653Z,6.35
2019-04-06T09:23:18.120Z,6.58
2019-04-06T09:28:24.624Z,5.67
2019-04-06T09:33:29.509Z,6.42
2019-04-06T09:38:34.056Z,6.55
2019-04-06T09:43:40.292Z,6.50
2019-04-06T09:48:52.955Z,6.47
2019-04-06T09:54:23.847Z,6.00
2019-04-06T09:59:38.778Z,7.10
2019-04-06T10:05:02.451Z,7.10
2019-04-06T10:10:33.782Z,6.90
2019-04-06T10:15:57.245Z,6.58
2019-04-06T10:21:26.876Z,6.60
2019-04-06T10:26:59.404Z,5.95
2019-04-06T10:32:22.463Z,6.25
2019-04-06T10:37:39.597Z,6.83
2019-04-06T10:43:08.737Z,6.80
2019-04-06T10:48:34.714Z,7.60
2019-04-06T10:54:03.730Z,7.03
2019-04-06T10:59:29.735Z,7.10
2019-04-06T11:04:44.234Z,7.03
2019-04-06T11:10:06.469Z,7.17
2019-04-06T11:15:28.777Z,7.28
2019-04-06T11:20:54.726Z,7.75
2019-04-06T11:26:19.069Z,7.42
2019-04-06T11:31:41.214Z,8.15
2019-04-06T11:37:07.187Z,7.45
2019-04-06T11:42:27.095Z,7.78
2019-04-06T11:48:02.382Z,7.58
2019-04-06T11:53:17.830Z,7.45
2019-04-06T11:58:28.020Z,8.43
2019-04-06T12:03:38.009Z,7.33
2019-04-06T12:08:48.686Z,6.72
2019-04-06T12:14:11.020Z,8.00
2019-04-06T12:19:25.164Z,8.53
2019-04-06T12:24:46.977Z,8.45
2019-04-06T12:30:00.389Z,7.47
2019-04-06T12:35:14.670Z,7.90
2019-04-06T12:40:42.532Z,8.05
2019-04-06T12:46:00.275Z,8.20
2019-04-06T12:51:22.209Z,8.55
2019-04-06T12:56:38.486Z,8.03
2019-04-06T13:01:59.794Z,8.28
2019-04-06T13:07:22.893Z,7.70
2019-04-06T13:12:42.904Z,7.20
2019-04-06T13:17:53.028Z,7.12
2019-04-06T13:23:22.165Z,6.87
2019-04-06T13:28:46.762Z,7.67
2019-04-06T13:33:57.172Z,6.92
2019-04-06T13:39:26.194Z,6.50
2019-04-06T13:44:51.752Z,6.40
2019-04-06T13:50:08.660Z,6.12
2019-04-06T13:55:23.888Z,5.97
2019-04-06T14:00:45.584Z,5.58
2019-04-06T14:06:23.551Z,5.55
2019-04-06T14:11:45.471Z,5.97
2019-04-06T14:17:23.794Z,5.08
2019-04-06T14:22:42.065Z,5.58
2019-04-06T14:27:53.799Z,5.95
2019-04-06T14:33:25.520Z,5.45
2019-04-06T14:39:00.976Z,5.67
2019-04-06T14:44:26.778Z,4.90
2019-04-06T14:49:41.577Z,4.95
2019-04-06T14:55:07.952Z,5.60
2019-04-06T15:00:31.145Z,5.50
2019-04-06T15:05:54.179Z,6.08
2019-04-06T15:11:04.354Z,5.97
2019-04-06T15:16:27.311Z,6.00
2019-04-06T15:21:38.982Z,5.85
2019-04-06T15:27:05.885Z,5.60
2019-04-06T15:32:44.690Z,5.65
2019-04-06T15:38:20.204Z,6.05
2019-04-06T15:43:44.636Z,6.78
2019-04-06T15:49:08.137Z,6.28
2019-04-06T15:54:31.519Z,6.20
2019-04-06T15:59:48.084Z,6.08
2019-04-06T16:05:02.125Z,6.65
2019-04-06T16:10:25.168Z,6.63
2019-04-06T16:15:51.200Z,6.37
2019-04-06T16:21:23.415Z,6.78
2019-04-06T16:26:40.127Z,6.40
2019-04-06T16:32:12.320Z,6.90
2019-04-06T16:37:33.361Z,7.07
2019-04-06T16:42:55.203Z,6.70
2019-04-06T16:48:12.790Z,6.60
2019-04-06T16:53:33.046Z,5.43
2019-04-06T16:58:56.242Z,5.70
2019-04-06T17:04:14.973Z,5.67
2019-04-06T17:09:34.212Z,5.83
2019-04-06T17:14:51.759Z,5.33
2019-04-06T17:20:09.081Z,5.80
2019-04-06T17:25:30.831Z,6.00
2019-04-06T17:30:43.403Z,5.67
2019-04-06T17:35:58.301Z,5.77
2019-04-06T17:41:11.791Z,6.33
2019-04-06T17:46:24.350Z,6.43
2019-04-06T17:52:03.058Z,6.63
2019-04-06T17:57:15.641Z,7.50
2019-04-06T18:02:29.272Z,7.50
2019-04-06T18:08:07.333Z,7.87
2019-04-06T18:13:20.025Z,8.17
2019-04-06T18:18:23.698Z,7.80
2019-04-06T18:23:27.414Z,8.20
2019-04-06T18:28:31.750Z,7.93
2019-04-06T18:33:35.856Z,8.57
2019-04-06T18:38:45.827Z,7.83
2019-04-06T18:43:49.482Z,7.83
2019-04-06T18:48:53.164Z,8.30
2019-04-06T18:53:57.329Z,8.30
2019-04-06T18:59:01.116Z,8.87
2019-04-06T19:04:05.545Z,8.40
2019-04-06T19:09:20.667Z,8.53
2019-04-06T19:14:15.919Z,8.87
2019-04-06T19:19:19.707Z,8.13
2019-04-06T19:24:24.894Z,9.10
2019-04-06T19:29:29.935Z,8.50
2019-04-06T19:34:33.886Z,9.00
2019-04-06T19:39:37.610Z,8.80
2019-04-06T19:44:41.509Z,8.20
2019-04-06T19:49:45.664Z,8.27
2019-04-06T19:54:50.207Z,8.43
2019-04-06T19:59:55.016Z,9.77
2019-04-06T20:04:59.274Z,9.67
2019-04-06T20:10:03.535Z,8.77
2019-04-06T20:15:08.076Z,9.00
2019-04-06T20:20:12.458Z,9.47
2019-04-06T20:25:16.263Z,9.37
2019-04-06T20:30:20.654Z,9.37
2019-04-06T20:35:25.150Z,9.77
2019-04-06T20:40:29.261Z,9.60
2019-04-06T20:45:36.319Z,10.10
2019-04-06T20:50:41.635Z,9.77
2019-04-06T20:55:45.434Z,10.13
2019-04-06T21:00:51.285Z,9.70
2019-04-06T21:05:55.463Z,9.33
2019-04-06T21:10:59.246Z,9.60
2019-04-06T21:16:03.783Z,9.97
2019-04-06T21:21:07.812Z,9.57
2019-04-06T21:26:12.523Z,9.63
2019-04-06T21:31:16.343Z,9.77
2019-04-06T21:36:20.746Z,10.53
2019-04-06T21:41:27.432Z,10.97
2019-04-06T21:46:33.662Z,10.17
2019-04-06T21:51:39.116Z,10.93
2019-04-06T21:56:43.405Z,10.37
2019-04-06T22:01:47.731Z,10.40
2019-04-06T22:06:51.760Z,10.53
2019-04-06T22:11:55.885Z,10.57
2019-04-06T22:16:59.951Z,11.90
2019-04-06T22:22:04.058Z,10.90
2019-04-06T22:27:07.750Z,12.00
2019-04-06T22:32:11.427Z,11.40
2019-04-06T22:37:15.130Z,11.40
2019-04-06T22:42:19.340Z,10.27
2019-04-06T22:47:23.572Z,10.73
2019-04-06T22:52:27.443Z,10.93
2019-04-06T22:57:31.764Z,11.17
2019-04-06T23:02:45.557Z,10.93
2019-04-06T23:07:49.606Z,10.57
2019-04-06T23:12:54.122Z,10.70
2019-04-06T23:17:58.068Z,11.43
2019-04-06T23:23:02.238Z,11.30
2019-04-06T23:28:05.985Z,12.07
2019-04-06T23:33:09.666Z,10.27
2019-04-06T23:38:13.345Z,11.40
2019-04-06T23:50:01.903Z,11.43
2019-04-06T23:55:32.899Z,10.70
